Time;durP1;ratioP1;P1;durP2;ratioP2;P2;SDS_P1;SDS_P2;PMS_P1;PMS_P2;Temp;Humidity;BMP_temperature;BMP_pressure;BME280_temperature;BME280_humidity;BME280_pressure;Samples;Min_cycle;Max_cycle;Signal;HPM_P1;HPM_P2
2023/11/25 00:02:09;;;;;;;;;;;;;;;17.37;48.87;99064.69;10329822;28;935;-72
2023/11/25 00:07:05;;;;;;;;;;;;;;;17.35;48.85;99059.53;10330287;28;818;-71
2023/11/25 00:12:00;;;;;;;;;;;;;;;17.34;49.01;99073.59;10329377;28;932;-71
2023/11/25 00:16:56;;;;;;;;;;;;;;;17.31;48.87;99074.63;10328253;28;1909;-71
2023/11/25 00:21:52;;;;;;;;;;;;;;;17.34;48.88;99078.88;10329804;28;869;-71
2023/11/25 00:26:48;;;;;;;;;;;;;;;17.35;48.63;99085.00;10329427;28;931;-71
2023/11/25 00:31:44;;;;;;;;;;;;;;;17.30;48.77;99090.50;10328822;28;802;-71
2023/11/25 00:36:41;;;;;;;;;;;;;;;17.28;48.78;99106.38;10329500;28;1918;-72
2023/11/25 00:41:38;;;;;;;;;;;;;;;17.28;48.66;99095.84;10328223;28;768;-71
2023/11/25 00:46:34;;;;;;;;;;;;;;;17.27;48.74;99109.97;10327864;28;790;-71
2023/11/25 00:51:30;;;;;;;;;;;;;;;17.27;48.77;99111.75;10327796;28;1331;-71
2023/11/25 00:56:26;;;;;;;;;;;;;;;17.25;48.84;99119.72;10326933;28;1897;-71
2023/11/25 01:01:21;;;;;;;;;;;;;;;17.26;48.52;99107.41;10326766;28;922;-71
2023/11/25 01:06:17;;;;;;;;;;;;;;;17.26;48.71;99100.34;10327814;28;889;-71
2023/11/25 01:11:13;;;;;;;;;;;;;;;17.22;48.46;99111.97;10327597;28;873;-71
2023/11/25 01:16:09;;;;;;;;;;;;;;;17.24;48.43;99136.47;10326722;28;1901;-72
2023/11/25 01:21:05;;;;;;;;;;;;;;;17.26;48.64;99137.22;10326633;28;1015;-71
2023/11/25 01:26:02;;;;;;;;;;;;;;;17.23;48.83;99147.91;10327524;28;810;-71
2023/11/25 01:30:59;;;;;;;;;;;;;;;17.23;48.53;99150.53;10326433;28;849;-71
2023/11/25 01:35:55;;;;;;;;;;;;;;;17.25;48.76;99143.41;10326374;28;1979;-72
2023/11/25 01:40:52;;;;;;;;;;;;;;;17.25;48.69;99139.94;10326079;28;837;-71
2023/11/25 01:45:49;;;;;;;;;;;;;;;17.21;48.57;99126.09;10325977;28;859;-71
2023/11/25 01:50:45;;;;;;;;;;;;;;;17.20;48.46;99140.16;10326387;28;787;-72
2023/11/25 01:55:41;;;;;;;;;;;;;;;17.21;48.32;99149.78;10325586;28;1898;-71
2023/11/25 02:00:39;;;;;;;;;;;;;;;17.21;48.55;99157.69;10325565;28;1075;-71
2023/11/25 02:05:35;;;;;;;;;;;;;;;17.16;48.54;99154.44;10325450;28;978;-71
2023/11/25 02:10:31;;;;;;;;;;;;;;;17.13;48.61;99149.28;10325338;28;867;-71
2023/11/25 02:15:27;;;;;;;;;;;;;;;17.13;48.66;99149.28;10324559;28;1897;-71
2023/11/25 02:20:23;;;;;;;;;;;;;;;17.15;48.58;99146.59;10325732;28;778;-71
2023/11/25 02:25:21;;;;;;;;;;;;;;;17.11;48.61;99152.94;10325654;28;917;-71
2023/11/25 02:30:17;;;;;;;;;;;;;;;17.08;48.60;99151.31;10325537;28;918;-71
2023/11/25 02:35:14;;;;;;;;;;;;;;;17.07;48.67;99154.88;10326066;28;1338;-71
2023/11/25 02:40:13;;;;;;;;;;;;;;;17.07;48.48;99158.34;10331949;28;1973;-71
2023/11/25 02:45:11;;;;;;;;;;;;;;;17.04;48.79;99152.41;10332926;28;850;-71
2023/11/25 02:50:07;;;;;;;;;;;;;;;17.02;48.67;99154.25;10332573;28;917;-71
2023/11/25 02:55:04;;;;;;;;;;;;;;;17.05;48.56;99151.47;10332950;28;865;-71
2023/11/25 03:00:00;;;;;;;;;;;;;;;17.03;48.58;99158.59;10332081;28;1955;-71
2023/11/25 03:04:56;;;;;;;;;;;;;;;17.01;48.71;99149.94;10332545;28;964;-71
2023/11/25 03:09:52;;;;;;;;;;;;;;;17.02;48.58;99141.94;10331923;28;921;-71
2023/11/25 03:14:48;;;;;;;;;;;;;;;17.02;48.38;99134.03;10331481;28;945;-71
2023/11/25 03:19:43;;;;;;;;;;;;;;;17.01;48.33;99126.22;10331374;28;1971;-71
2023/11/25 03:24:39;;;;;;;;;;;;;;;17.00;48.60;99128.03;10331215;28;819;-72
2023/11/25 03:29:35;;;;;;;;;;;;;;;17.00;48.62;99127.13;10331022;28;823;-72
2023/11/25 03:34:31;;;;;;;;;;;;;;;17.02;48.16;99138.44;10330265;28;1456;-71
2023/11/25 03:39:27;;;;;;;;;;;;;;;17.01;48.25;99142.03;10331169;28;1914;-72
2023/11/25 03:44:23;;;;;;;;;;;;;;;17.01;48.23;99136.75;10331096;28;770;-71
2023/11/25 03:49:20;;;;;;;;;;;;;;;17.02;48.18;99141.94;10329052;28;879;-71
2023/11/25 03:54:16;;;;;;;;;;;;;;;17.02;48.10;99141.09;10330174;28;778;-71
2023/11/25 03:59:12;;;;;;;;;;;;;;;16.99;48.09;99146.50;10329980;28;1910;-71
2023/11/25 04:04:08;;;;;;;;;;;;;;;17.00;48.16;99143.81;10329798;28;919;-71
2023/11/25 04:09:04;;;;;;;;;;;;;;;17.01;48.10;99144.66;10329596;28;842;-71
2023/11/25 04:14:00;;;;;;;;;;;;;;;17.00;48.12;99146.44;10329815;28;887;-71
2023/11/25 04:18:56;;;;;;;;;;;;;;;16.97;48.18;99136.03;10329249;28;1973;-71
2023/11/25 04:23:55;;;;;;;;;;;;;;;16.98;47.86;99127.25;10329699;28;841;-71
2023/11/25 04:28:51;;;;;;;;;;;;;;;16.98;47.85;99113.22;10329416;28;843;-71
2023/11/25 04:33:47;;;;;;;;;;;;;;;17.01;47.69;99099.91;10328500;28;1326;-71
2023/11/25 04:38:43;;;;;;;;;;;;;;;17.06;47.25;99113.69;10328974;28;1894;-72
2023/11/25 04:43:39;;;;;;;;;;;;;;;17.08;47.40;99104.78;10328771;28;880;-71
2023/11/25 04:48:35;;;;;;;;;;;;;;;17.11;47.22;99102.91;10328006;28;778;-71
2023/11/25 04:53:31;;;;;;;;;;;;;;;17.14;47.32;99102.78;10327763;28;938;-71
2023/11/25 04:58:27;;;;;;;;;;;;;;;17.12;47.33;99099.34;10328109;28;1893;-71
2023/11/25 05:03:25;;;;;;;;;;;;;;;17.14;47.17;99089.59;10327034;28;762;-71
2023/11/25 05:08:21;;;;;;;;;;;;;;;17.18;47.35;99091.13;10327181;28;793;-71
2023/11/25 05:13:17;;;;;;;;;;;;;;;17.17;47.22;99100.81;10328000;28;869;-71
2023/11/25 05:18:13;;;;;;;;;;;;;;;17.22;47.11;99105.88;10327383;28;1898;-71
2023/11/25 05:23:09;;;;;;;;;;;;;;;17.23;46.89;99108.41;10326659;28;790;-71
2023/11/25 05:28:04;;;;;;;;;;;;;;;17.23;46.98;99105.75;10327076;28;854;-71
2023/11/25 05:33:00;;;;;;;;;;;;;;;17.26;46.80;99107.41;10326194;28;1326;-71
2023/11/25 05:37:56;;;;;;;;;;;;;;;17.27;46.86;99107.31;10327180;28;1914;-71
2023/11/25 05:42:57;;;;;;;;;;;;;;;17.26;46.91;99108.25;10325970;28;826;-72
2023/11/25 05:47:54;;;;;;;;;;;;;;;17.31;46.76;99103.59;10326203;28;1039;-72
2023/11/25 05:52:50;;;;;;;;;;;;;;;17.35;46.63;99100.81;10325771;28;962;-72
2023/11/25 05:57:46;;;;;;;;;;;;;;;17.38;46.73;99087.50;10326215;28;1910;-72
2023/11/25 06:02:42;;;;;;;;;;;;;;;17.41;46.88;99082.06;10325668;28;782;-72
2023/11/25 06:07:38;;;;;;;;;;;;;;;17.36;47.06;99089.34;10325489;28;977;-72
2023/11/25 06:12:34;;;;;;;;;;;;;;;17.36;46.79;99089.34;10324490;28;783;-72
2023/11/25 06:17:30;;;;;;;;;;;;;;;17.42;46.93;99086.38;10324626;28;1894;-73
2023/11/25 06:22:26;;;;;;;;;;;;;;;17.42;47.07;99081.97;10325139;28;1523;-72
2023/11/25 06:27:23;;;;;;;;;;;;;;;17.36;47.06;99089.34;10325668;28;878;-72
2023/11/25 06:32:19;;;;;;;;;;;;;;;17.40;46.87;99089.09;10325554;28;853;-72
2023/11/25 06:37:15;;;;;;;;;;;;;;;17.40;46.86;99083.00;10324300;28;1989;-74
2023/11/25 06:42:12;;;;;;;;;;;;;;;17.27;47.35;99081.00;10325514;28;889;-74
2023/11/25 06:47:08;;;;;;;;;;;;;;;17.24;47.54;99078.53;10324663;28;874;-75
2023/11/25 06:52:04;;;;;;;;;;;;;;;17.19;47.45;99092.84;10325175;28;935;-74
2023/11/25 06:57:00;;;;;;;;;;;;;;;17.16;47.50;99083.34;10324329;28;1919;-75
2023/11/25 07:01:56;;;;;;;;;;;;;;;17.20;47.27;99081.38;10324537;28;1067;-74
2023/11/25 07:06:51;;;;;;;;;;;;;;;17.16;47.58;99080.69;10324324;28;858;-77
2023/11/25 07:11:48;;;;;;;;;;;;;;;17.09;47.51;99074.88;10324216;28;932;-75
2023/11/25 07:16:45;;;;;;;;;;;;;;;17.04;47.59;99078.69;10323899;28;1898;-75
2023/11/25 07:21:41;;;;;;;;;;;;;;;16.96;47.67;99057.16;10324575;28;854;-75
2023/11/25 07:26:41;;;;;;;;;;;;;;;16.91;47.79;99051.28;10331645;28;868;-75
2023/11/25 07:31:37;;;;;;;;;;;;;;;16.85;48.01;99055.91;10331017;28;931;-75
2023/11/25 07:36:33;;;;;;;;;;;;;;;16.83;47.98;99057.78;10330803;28;1976;-75
2023/11/25 07:41:29;;;;;;;;;;;;;;;16.84;48.19;99059.47;10330083;28;843;-74
2023/11/25 07:46:25;;;;;;;;;;;;;;;16.91;47.80;99067.06;10330723;28;817;-74
2023/11/25 07:51:21;;;;;;;;;;;;;;;16.86;48.15;99057.63;10330288;28;883;-75
2023/11/25 07:56:17;;;;;;;;;;;;;;;16.88;47.78;99054.91;10330408;28;1949;-75
2023/11/25 08:01:13;;;;;;;;;;;;;;;16.91;47.79;99060.03;10329987;28;771;-74
2023/11/25 08:06:10;;;;;;;;;;;;;;;16.90;47.69;99053.06;10329742;28;1107;-72
2023/11/25 08:11:06;;;;;;;;;;;;;;;16.91;47.71;99053.91;10329586;28;783;-73
2023/11/25 08:16:04;;;;;;;;;;;;;;;16.91;47.56;99038.97;10329266;28;1906;-74
2023/11/25 08:21:00;;;;;;;;;;;;;;;16.91;47.66;99041.59;10329126;28;891;-74
2023/11/25 08:25:56;;;;;;;;;;;;;;;16.95;47.17;99040.53;10329550;28;810;-74
2023/11/25 08:30:52;;;;;;;;;;;;;;;16.93;47.39;99045.00;10329384;28;945;-75
2023/11/25 08:35:48;;;;;;;;;;;;;;;16.92;47.75;99045.91;10325979;28;1906;-75
2023/11/25 08:40:44;;;;;;;;;;;;;;;16.98;47.57;99032.47;10327287;28;885;-75
2023/11/25 08:45:42;;;;;;;;;;;;;;;16.94;47.66;99059.00;10327847;28;845;-75
2023/11/25 08:50:37;;;;;;;;;;;;;;;16.94;47.50;99049.31;10327523;28;818;-78
2023/11/25 08:55:33;;;;;;;;;;;;;;;17.01;47.50;99060.41;10327467;28;819;-74
2023/11/25 09:00:29;;;;;;;;;;;;;;;16.97;47.62;99050.97;10327531;28;763;-74
2023/11/25 09:05:26;;;;;;;;;;;;;;;16.93;47.81;99041.53;10326975;28;803;-74
2023/11/25 09:10:23;;;;;;;;;;;;;;;16.98;47.68;99045.63;10326462;28;1477;-74
2023/11/25 09:15:18;;;;;;;;;;;;;;;16.96;47.56;99031.69;10326049;28;1155;-74
2023/11/25 09:20:16;;;;;;;;;;;;;;;16.96;47.72;99049.25;10326227;28;1953;-74
2023/11/25 09:25:12;;;;;;;;;;;;;;;16.97;47.56;99043.06;10326664;28;868;-74
2023/11/25 09:30:11;;;;;;;;;;;;;;;16.93;47.75;99039.75;10326485;28;768;-74
2023/11/25 09:35:07;;;;;;;;;;;;;;;16.94;47.59;99025.63;10326299;28;1069;-74
2023/11/25 09:40:06;;;;;;;;;;;;;;;16.98;47.57;99027.19;10326176;28;1969;-75
2023/11/25 09:45:02;;;;;;;;;;;;;;;16.94;47.81;99027.44;10326595;28;878;-73
2023/11/25 09:49:57;;;;;;;;;;;;;;;16.93;47.74;99015.19;10325853;28;865;-75
2023/11/25 09:54:53;;;;;;;;;;;;;;;16.95;47.84;99010.69;10326383;28;862;-75
2023/11/25 09:59:49;;;;;;;;;;;;;;;16.93;47.72;99023.09;10325564;28;1886;-76
2023/11/25 10:04:45;;;;;;;;;;;;;;;16.93;47.72;99018.69;10325598;28;773;-76
2023/11/25 10:09:41;;;;;;;;;;;;;;;17.22;47.36;99019.81;10325454;28;834;-73
2023/11/25 10:14:37;;;;;;;;;;;;;;;17.31;47.35;99027.19;10324769;28;870;-73
2023/11/25 10:19:33;;;;;;;;;;;;;;;17.36;47.25;99026.97;10325767;28;1886;-72
2023/11/25 10:24:29;;;;;;;;;;;;;;;17.35;47.55;99021.78;10325760;28;914;-72
2023/11/25 10:29:27;;;;;;;;;;;;;;;17.38;47.44;99029.53;10325115;28;837;-72
2023/11/25 10:34:24;;;;;;;;;;;;;;;17.42;47.56;99025.78;10325258;28;1584;-71
2023/11/25 10:39:20;;;;;;;;;;;;;;;17.38;47.46;99021.63;10324797;28;1906;-72
2023/11/25 10:44:16;;;;;;;;;;;;;;;17.40;47.65;99017.13;10324793;28;784;-72
2023/11/25 10:49:12;;;;;;;;;;;;;;;17.42;47.40;99002.94;10325265;28;857;-74
2023/11/25 10:54:08;;;;;;;;;;;;;;;17.21;48.10;99006.69;10324603;28;865;-75
2023/11/25 10:59:05;;;;;;;;;;;;;;;17.12;48.15;99008.03;10328077;28;1898;-73
2023/11/25 11:04:02;;;;;;;;;;;;;;;17.09;48.32;98988.00;10331331;28;922;-73
2023/11/25 11:08:58;;;;;;;;;;;;;;;17.07;48.05;98992.47;10332442;28;802;-73
2023/11/25 11:13:55;;;;;;;;;;;;;;;17.07;48.03;98978.47;10332510;28;856;-73
2023/11/25 11:18:51;;;;;;;;;;;;;;;17.05;48.27;98967.16;10331500;28;1890;-73
2023/11/25 11:23:47;;;;;;;;;;;;;;;17.06;48.20;98953.09;10331439;28;929;-74
2023/11/25 11:28:43;;;;;;;;;;;;;;;17.05;47.99;98962.75;10331803;28;938;-73
2023/11/25 11:33:39;;;;;;;;;;;;;;;17.04;48.12;98961.03;10331806;28;1152;-74
2023/11/25 11:38:35;;;;;;;;;;;;;;;16.99;48.29;98957.81;10330759;28;1909;-73
2023/11/25 11:43:32;;;;;;;;;;;;;;;17.02;48.03;98972.59;10331288;28;909;-73
2023/11/25 11:48:27;;;;;;;;;;;;;;;17.01;48.28;98965.63;10331714;28;815;-73
2023/11/25 11:53:25;;;;;;;;;;;;;;;16.99;48.11;98963.06;10330320;28;819;-73
2023/11/25 11:58:21;;;;;;;;;;;;;;;17.00;48.02;98956.00;10330094;28;1898;-73
2023/11/25 12:03:17;;;;;;;;;;;;;;;16.98;48.20;98957.91;10330559;28;917;-73
2023/11/25 12:08:13;;;;;;;;;;;;;;;16.98;48.04;98956.13;10329936;28;763;-74
2023/11/25 12:13:10;;;;;;;;;;;;;;;17.02;48.26;98951.53;10329349;28;854;-73
2023/11/25 12:18:06;;;;;;;;;;;;;;;17.01;48.00;98941.94;10329518;28;1949;-73
2023/11/25 12:23:02;;;;;;;;;;;;;;;16.99;48.12;98942.00;10329813;28;912;-73
2023/11/25 12:27:58;;;;;;;;;;;;;;;17.01;48.11;98939.31;10329904;28;882;-73
2023/11/25 12:32:55;;;;;;;;;;;;;;;16.97;48.01;98932.50;10329201;28;1132;-73
2023/11/25 12:37:50;;;;;;;;;;;;;;;16.97;48.15;98928.06;10329244;28;1914;-73
2023/11/25 12:42:47;;;;;;;;;;;;;;;16.99;48.02;98933.25;10328322;28;852;-73
2023/11/25 12:47:44;;;;;;;;;;;;;;;16.96;48.08;98943.97;10328141;28;854;-73
2023/11/25 12:52:40;;;;;;;;;;;;;;;16.96;48.14;98946.59;10328518;28;881;-73
2023/11/25 12:57:36;;;;;;;;;;;;;;;17.01;48.24;98944.56;10328322;28;1886;-74
2023/11/25 13:02:33;;;;;;;;;;;;;;;16.95;48.00;98935.22;10328164;28;1146;-74
2023/11/25 13:07:30;;;;;;;;;;;;;;;16.99;48.02;98938.53;10327344;28;975;-73
2023/11/25 13:12:26;;;;;;;;;;;;;;;16.96;48.28;98930.81;10327839;28;879;-73
2023/11/25 13:17:21;;;;;;;;;;;;;;;16.94;48.26;98930.03;10326965;28;1902;-73
2023/11/25 13:22:17;;;;;;;;;;;;;;;16.97;48.22;98932.50;10326522;28;822;-74
2023/11/25 13:27:13;;;;;;;;;;;;;;;16.93;48.03;98923.91;10327268;28;861;-74
2023/11/25 13:32:10;;;;;;;;;;;;;;;16.93;48.18;98941.50;10326721;28;976;-73
2023/11/25 13:37:07;;;;;;;;;;;;;;;16.96;48.27;98915.84;10326400;28;1976;-73
2023/11/25 13:42:07;;;;;;;;;;;;;;;16.93;48.21;98936.22;10326746;28;813;-74
2023/11/25 13:47:03;;;;;;;;;;;;;;;16.94;48.24;98937.91;10325971;28;998;-73
2023/11/25 13:51:59;;;;;;;;;;;;;;;16.96;47.98;98930.81;10325659;28;996;-70
2023/11/25 13:56:55;;;;;;;;;;;;;;;16.91;48.02;98940.72;10325124;28;1945;-72
2023/11/25 14:01:51;;;;;;;;;;;;;;;16.91;48.17;98938.09;10325590;28;930;-71
2023/11/25 14:06:48;;;;;;;;;;;;;;;16.93;47.97;98937.06;10326111;28;854;-72
2023/11/25 14:11:44;;;;;;;;;;;;;;;16.91;48.03;98940.72;10326042;28;785;-71
2023/11/25 14:16:44;;;;;;;;;;;;;;;16.91;48.02;98938.94;10325805;28;1953;-71
2023/11/25 14:21:40;;;;;;;;;;;;;;;16.91;48.07;98933.66;10325489;28;787;-70
2023/11/25 14:26:37;;;;;;;;;;;;;;;16.85;47.92;98924.31;10325745;28;901;-71
2023/11/25 14:31:33;;;;;;;;;;;;;;;16.89;48.10;98925.00;10325616;28;838;-74
2023/11/25 14:36:30;;;;;;;;;;;;;;;16.87;47.97;98929.47;10333157;28;1902;-74
2023/11/25 14:41:26;;;;;;;;;;;;;;;16.84;47.93;98942.81;10333656;28;862;-74
2023/11/25 14:46:21;;;;;;;;;;;;;;;16.91;48.03;98993.38;10333479;28;1000;-73
2023/11/25 14:51:17;;;;;;;;;;;;;;;16.88;48.06;98991.75;10332438;28;862;-73
2023/11/25 14:56:14;;;;;;;;;;;;;;;16.88;48.11;98980.38;10332255;28;1894;-75
2023/11/25 15:01:09;;;;;;;;;;;;;;;16.91;47.89;98981.03;10332086;28;899;-74
2023/11/25 15:06:05;;;;;;;;;;;;;;;16.89;48.00;98980.28;10331940;28;795;-74
2023/11/25 15:11:01;;;;;;;;;;;;;;;16.88;47.96;98994.38;10331132;28;937;-74
2023/11/25 15:15:57;;;;;;;;;;;;;;;16.92;47.87;99001.16;10331456;28;1890;-74
2023/11/25 15:20:53;;;;;;;;;;;;;;;16.89;48.04;98987.31;10331916;28;787;-74
2023/11/25 15:25:49;;;;;;;;;;;;;;;16.87;48.11;98992.66;10331761;28;838;-73
2023/11/25 15:30:45;;;;;;;;;;;;;;;16.85;48.12;98987.50;10330961;28;854;-76
2023/11/25 15:35:41;;;;;;;;;;;;;;;16.81;48.30;98995.59;10331228;28;1468;-80
2023/11/25 15:40:37;;;;;;;;;;;;;;;16.76;48.34;98990.53;10331161;28;2023;-74
2023/11/25 15:45:33;;;;;;;;;;;;;;;16.71;48.29;98992.56;10330741;28;854;-74
2023/11/25 15:50:29;;;;;;;;;;;;;;;16.68;48.57;98990.09;10329925;28;957;-74
2023/11/25 15:55:25;;;;;;;;;;;;;;;16.68;48.60;99000.59;10330091;28;770;-74
2023/11/25 16:00:22;;;;;;;;;;;;;;;16.99;48.33;99005.19;10329728;28;1897;-72
2023/11/25 16:05:18;;;;;;;;;;;;;;;17.11;48.23;99026.53;10330597;28;878;-72
2023/11/25 16:10:14;;;;;;;;;;;;;;;17.15;48.20;99031.56;10330050;28;869;-72
2023/11/25 16:15:10;;;;;;;;;;;;;;;17.23;48.15;99034.66;10329289;28;971;-73
2023/11/25 16:20:06;;;;;;;;;;;;;;;17.27;48.20;99036.22;10329547;28;1999;-72
2023/11/25 16:25:02;;;;;;;;;;;;;;;17.31;48.30;99043.00;10329528;28;934;-72
2023/11/25 16:29:58;;;;;;;;;;;;;;;17.37;48.07;99044.50;10328116;28;953;-73
2023/11/25 16:34:54;;;;;;;;;;;;;;;17.40;47.87;99056.66;10328321;28;1256;-73
2023/11/25 16:39:50;;;;;;;;;;;;;;;17.43;48.19;99061.75;10328181;28;1914;-73
2023/11/25 16:44:46;;;;;;;;;;;;;;;17.31;48.18;99068.50;10328727;28;897;-75
2023/11/25 16:49:42;;;;;;;;;;;;;;;17.11;48.65;99082.72;10328841;28;778;-79
2023/11/25 16:54:38;;;;;;;;;;;;;;;17.07;48.70;99086.41;10327880;28;877;-74
2023/11/25 16:59:34;;;;;;;;;;;;;;;17.05;48.76;99106.69;10327253;28;1902;-74
2023/11/25 17:04:30;;;;;;;;;;;;;;;16.98;48.72;99108.81;10327248;28;875;-74
2023/11/25 17:09:27;;;;;;;;;;;;;;;16.94;48.70;99111.66;10327149;28;783;-73
2023/11/25 17:14:23;;;;;;;;;;;;;;;16.86;48.83;99118.16;10326916;28;873;-74
2023/11/25 17:19:22;;;;;;;;;;;;;;;16.82;49.06;99134.16;10327212;28;1949;-74
2023/11/25 17:24:17;;;;;;;;;;;;;;;16.82;49.01;99144.69;10327067;28;1670;-75
2023/11/25 17:29:13;;;;;;;;;;;;;;;16.80;49.03;99144.78;10327089;28;894;-75
2023/11/25 17:34:09;;;;;;;;;;;;;;;16.85;48.77;99149.84;10326682;28;1189;-75
2023/11/25 17:39:05;;;;;;;;;;;;;;;16.80;48.99;99152.69;10325958;28;1906;-75
2023/11/25 17:44:01;;;;;;;;;;;;;;;16.83;48.87;99163.06;10326060;28;763;-76
2023/11/25 17:48:57;;;;;;;;;;;;;;;16.89;48.58;99164.53;10326645;28;827;-74
2023/11/25 17:53:54;;;;;;;;;;;;;;;16.86;48.70;99170.78;10325906;28;766;-74
2023/11/25 17:58:50;;;;;;;;;;;;;;;16.91;48.72;99178.47;10325623;28;1886;-74
2023/11/25 18:03:46;;;;;;;;;;;;;;;16.93;48.53;99188.94;10325059;28;1047;-75
2023/11/25 18:08:42;;;;;;;;;;;;;;;16.92;48.72;99197.75;10324820;28;782;-74
2023/11/25 18:13:38;;;;;;;;;;;;;;;16.96;48.57;99199.31;10325762;28;874;-74
2023/11/25 18:18:34;;;;;;;;;;;;;;;16.94;48.63;99206.44;10326162;28;1898;-74
2023/11/25 18:23:30;;;;;;;;;;;;;;;16.95;48.43;99216.91;10325260;28;765;-74
2023/11/25 18:28:26;;;;;;;;;;;;;;;17.00;48.39;99219.28;10326321;28;897;-75
2023/11/25 18:33:22;;;;;;;;;;;;;;;16.94;48.66;99228.34;10324784;28;1438;-73
2023/11/25 18:38:17;;;;;;;;;;;;;;;16.99;48.30;99230.75;10325567;28;1922;-75
2023/11/25 18:43:13;;;;;;;;;;;;;;;16.98;48.33;99239.59;10325506;28;863;-74
2023/11/25 18:48:12;;;;;;;;;;;;;;;16.96;48.58;99247.56;10325114;28;753;-74
2023/11/25 18:53:08;;;;;;;;;;;;;;;17.01;48.42;99248.19;10325296;28;779;-75
2023/11/25 18:58:04;;;;;;;;;;;;;;;17.00;48.38;99250.88;10325371;28;1917;-75
2023/11/25 19:03:00;;;;;;;;;;;;;;;16.97;48.48;99258.94;10324497;28;838;-74
2023/11/25 19:07:56;;;;;;;;;;;;;;;17.02;48.24;99256.94;10324957;28;826;-74
2023/11/25 19:12:53;;;;;;;;;;;;;;;17.01;48.49;99278.94;10324886;28;839;-74
2023/11/25 19:17:49;;;;;;;;;;;;;;;17.00;48.19;99272.81;10324193;28;1963;-75
2023/11/25 19:22:45;;;;;;;;;;;;;;;17.04;48.23;99278.78;10332164;28;794;-75
2023/11/25 19:27:40;;;;;;;;;;;;;;;17.02;48.43;99280.63;10331380;28;877;-74
2023/11/25 19:32:36;;;;;;;;;;;;;;;17.01;48.37;99298.22;10331590;28;994;-74
2023/11/25 19:37:32;;;;;;;;;;;;;;;17.05;48.40;99297.13;10331737;28;1976;-74
2023/11/25 19:42:28;;;;;;;;;;;;;;;17.03;48.43;99308.69;10330904;28;887;-74
2023/11/25 19:47:24;;;;;;;;;;;;;;;17.01;48.23;99313.16;10330592;28;917;-75
2023/11/25 19:52:20;;;;;;;;;;;;;;;17.03;48.14;99317.44;10331113;28;968;-74
2023/11/25 19:57:17;;;;;;;;;;;;;;;17.01;48.38;99328.97;10330197;28;1953;-75
2023/11/25 20:02:13;;;;;;;;;;;;;;;17.03;48.14;99337.66;10330157;28;850;-74
2023/11/25 20:07:09;;;;;;;;;;;;;;;17.06;48.19;99342.78;10330505;28;827;-74
2023/11/25 20:12:05;;;;;;;;;;;;;;;17.02;48.39;99339.41;10329716;28;806;-74
2023/11/25 20:17:01;;;;;;;;;;;;;;;17.05;48.26;99349.78;10329758;28;1963;-74
2023/11/25 20:21:57;;;;;;;;;;;;;;;17.06;48.13;99354.16;10330010;28;936;-74
2023/11/25 20:26:53;;;;;;;;;;;;;;;17.03;48.23;99353.44;10330388;28;856;-74
2023/11/25 20:31:49;;;;;;;;;;;;;;;17.03;48.24;99356.09;10327976;28;863;-75
2023/11/25 20:36:45;;;;;;;;;;;;;;;17.07;48.17;99360.25;10329579;28;1922;-74
2023/11/25 20:41:41;;;;;;;;;;;;;;;17.03;48.18;99366.63;10328865;28;830;-74
2023/11/25 20:46:37;;;;;;;;;;;;;;;17.01;48.42;99377.19;10328368;28;918;-75
2023/11/25 20:51:34;;;;;;;;;;;;;;;16.99;48.35;99378.19;10328566;28;843;-75
2023/11/25 20:56:30;;;;;;;;;;;;;;;16.95;48.50;99382.75;10327726;28;1901;-74
2023/11/25 21:01:26;;;;;;;;;;;;;;;17.01;48.45;99393.00;10328019;28;778;-75
2023/11/25 21:06:24;;;;;;;;;;;;;;;16.96;48.42;99395.00;10327103;28;834;-75
2023/11/25 21:11:19;;;;;;;;;;;;;;;16.93;48.30;99400.41;10327393;28;838;-75
2023/11/25 21:16:15;;;;;;;;;;;;;;;16.98;48.37;99403.69;10327045;28;1956;-75
2023/11/25 21:21:12;;;;;;;;;;;;;;;16.97;48.29;99401.09;10326963;28;1068;-75
2023/11/25 21:26:08;;;;;;;;;;;;;;;16.95;48.33;99392.41;10326719;28;933;-74
2023/11/25 21:31:04;;;;;;;;;;;;;;;16.94;48.43;99406.50;10327669;28;897;-74
2023/11/25 21:36:00;;;;;;;;;;;;;;;16.97;48.25;99409.84;10326088;28;1073;-75
2023/11/25 21:40:56;;;;;;;;;;;;;;;16.97;48.36;99416.91;10326064;28;830;-74
2023/11/25 21:45:51;;;;;;;;;;;;;;;16.95;48.31;99418.75;10326378;28;867;-75
2023/11/25 21:50:47;;;;;;;;;;;;;;;16.95;48.30;99421.38;10326058;28;774;-75
2023/11/25 21:55:43;;;;;;;;;;;;;;;16.91;48.49;99423.28;10325853;28;795;-75
2023/11/25 22:00:39;;;;;;;;;;;;;;;16.93;48.39;99424.09;10326260;28;1906;-75
2023/11/25 22:05:35;;;;;;;;;;;;;;;16.94;48.28;99432.84;10326210;28;822;-75
2023/11/25 22:10:35;;;;;;;;;;;;;;;16.94;48.42;99438.09;10326052;28;877;-75
2023/11/25 22:15:30;;;;;;;;;;;;;;;16.91;48.46;99436.47;10325362;28;944;-74
2023/11/25 22:20:27;;;;;;;;;;;;;;;16.89;48.36;99426.91;10325302;28;1898;-75
2023/11/25 22:25:28;;;;;;;;;;;;;;;16.85;48.70;99424.44;10325849;28;890;-74
2023/11/25 22:30:24;;;;;;;;;;;;;;;16.86;48.58;99428.75;10325126;28;955;-74
2023/11/25 22:35:20;;;;;;;;;;;;;;;16.91;48.45;99438.25;10324873;28;1239;-74
2023/11/25 22:40:16;;;;;;;;;;;;;;;16.88;48.72;99430.50;10324940;28;1975;-75
2023/11/25 22:45:13;;;;;;;;;;;;;;;16.86;48.41;99433.19;10324720;28;874;-74
2023/11/25 22:50:09;;;;;;;;;;;;;;;16.81;48.77;99437.78;10324743;28;907;-74
2023/11/25 22:55:05;;;;;;;;;;;;;;;16.84;48.65;99437.66;10328541;28;822;-74
2023/11/25 23:00:01;;;;;;;;;;;;;;;16.83;48.44;99430.69;10332455;28;1957;-74
2023/11/25 23:04:57;;;;;;;;;;;;;;;16.79;48.46;99445.78;10332904;28;854;-74
2023/11/25 23:09:52;;;;;;;;;;;;;;;16.79;48.69;99445.78;10332541;28;818;-74
2023/11/25 23:14:49;;;;;;;;;;;;;;;16.81;48.67;99441.28;10332451;28;843;-74
2023/11/25 23:19:44;;;;;;;;;;;;;;;16.79;48.69;99445.78;10332230;28;1957;-74
2023/11/25 23:24:40;;;;;;;;;;;;;;;16.79;48.72;99451.03;10331561;28;925;-74
2023/11/25 23:29:36;;;;;;;;;;;;;;;16.83;48.49;99454.38;10331981;28;883;-74
2023/11/25 23:34:32;;;;;;;;;;;;;;;16.81;48.43;99438.63;10331615;28;1126;-74
2023/11/25 23:39:29;;;;;;;;;;;;;;;16.76;48.63;99445.84;10330960;28;1910;-74
2023/11/25 23:44:25;;;;;;;;;;;;;;;16.81;48.44;99464.97;10330719;28;998;-74
2023/11/25 23:49:20;;;;;;;;;;;;;;;16.84;48.56;99463.97;10331293;28;871;-73
2023/11/25 23:54:16;;;;;;;;;;;;;;;16.81;48.50;99459.69;10331090;28;802;-74
2023/11/25 23:59:12;;;;;;;;;;;;;;;16.80;48.46;99476.41;10330842;28;1952;-74
